Ages, Kentucky
Current Conditions -  °F | °C
As of 10:35 PM on Thursday 18 Dec 2014 (Local Time) from KI35 Reporting Station
Overcast Overcast  
Wind Chill: 31°   Ceiling: 5000
Heat Index: 36°   Visibility: 10mi
Dew Point: 28°   Wind: 6mph
Humidity: 75%   Direction: 320°NW
Pressure: 30.17"   Gusts: NA
Location:  36.8576°N, 83.2467°W
Report Text: KI35 190335Z AUTO 32005KT 10SM SCT040 OVC050 02/M02 A3017 RMK AO1
Loading
Personal Weather Stations






























Interactive Weather Map New forecast layout! Learn more

10-Day Weather Forecast

Advertisements
Track Severe Weather on mobile